Time;durP1;ratioP1;P1;durP2;ratioP2;P2;SDS_P1;SDS_P2;PMS_P1;PMS_P2;Temp;Humidity;BMP_temperature;BMP_pressure;BME280_temperature;BME280_humidity;BME280_pressure;Samples;Min_cycle;Max_cycle;Signal;HPM_P1;HPM_P2
2022/03/12 00:01:16;;;;;;;26.00;9.82;;;;;;;15.45;32.15;101152.53;5085005;28;20032;-46
2022/03/12 00:03:42;;;;;;;20.10;9.93;;;;;;;15.57;32.26;101147.25;5082745;28;20033;-48
2022/03/12 00:06:09;;;;;;;21.13;9.23;;;;;;;15.59;32.37;101145.19;5073023;28;20037;-47
2022/03/12 00:08:54;;;;;;;22.25;10.38;;;;;;;15.56;32.18;101149.13;5061097;28;20029;-46
2022/03/12 00:11:34;;;;;;;21.90;11.40;;;;;;;15.76;32.08;101142.75;5084074;28;20064;-46
2022/03/12 00:14:03;;;;;;;23.63;10.40;;;;;;;15.44;32.18;101149.03;5089334;28;20051;-48
2022/03/12 00:16:29;;;;;;;18.45;9.43;;;;;;;15.43;32.12;101143.84;5077477;28;20037;-46
2022/03/12 00:18:58;;;;;;;22.38;10.65;;;;;;;15.43;32.14;101146.53;5088145;28;20084;-48
2022/03/12 00:21:27;;;;;;;26.85;12.27;;;;;;;15.74;32.09;101145.66;5088342;28;20047;-51
2022/03/12 00:23:56;;;;;;;20.15;10.30;;;;;;;15.60;32.10;101157.63;5084085;28;20130;-46
2022/03/12 00:26:23;;;;;;;20.17;9.48;;;;;;;15.71;32.18;101150.69;5094844;28;20047;-48
2022/03/12 00:28:50;;;;;;;23.05;11.60;;;;;;;15.82;31.66;101149.13;5083586;28;20031;-48
2022/03/12 00:31:16;;;;;;;19.00;10.90;;;;;;;15.56;32.22;101157.22;5088809;28;20041;-47
2022/03/12 00:33:42;;;;;;;29.07;12.17;;;;;;;15.67;32.15;101162.94;5090714;28;20036;-46
2022/03/12 00:36:09;;;;;;;24.00;10.95;;;;;;;15.77;31.91;101155.16;5081838;28;20111;-51
2022/03/12 00:38:35;;;;;;;21.38;10.30;;;;;;;15.86;32.00;101158.41;5094632;28;20029;-47
2022/03/12 00:41:05;;;;;;;22.38;9.93;;;;;;;15.67;31.99;101166.47;5084847;28;20075;-47
2022/03/12 00:43:31;;;;;;;19.65;10.38;;;;;;;16.01;31.92;101163.47;5086840;28;20016;-48
2022/03/12 00:45:57;;;;;;;28.08;10.63;;;;;;;15.79;32.10;101166.56;5082653;28;20060;-48
2022/03/12 00:48:23;;;;;;;22.88;9.93;;;;;;;15.63;32.35;101173.34;5094360;28;20032;-48
2022/03/12 00:50:49;;;;;;;23.05;11.90;;;;;;;15.67;32.35;101171.00;5082978;28;20071;-45
2022/03/12 00:53:15;;;;;;;18.67;10.32;;;;;;;15.79;32.50;101166.56;5088632;28;20037;-46
2022/03/12 00:55:41;;;;;;;21.10;9.85;;;;;;;15.65;32.43;101167.72;5089794;28;20032;-47
2022/03/12 00:58:08;;;;;;;23.27;9.93;;;;;;;15.84;32.44;101171.28;5081782;28;20033;-44
2022/03/12 01:00:34;;;;;;;22.33;11.00;;;;;;;15.62;32.32;101186.00;5086144;28;20100;-46
2022/03/12 01:03:00;;;;;;;21.15;10.00;;;;;;;15.74;32.21;101164.53;5084200;28;20028;-46
2022/03/12 01:05:47;;;;;;;21.08;10.05;;;;;;;15.91;32.12;101182.88;5086912;28;20028;-48
2022/03/12 01:08:14;;;;;;;;;;;;;;;15.69;32.45;101171.66;5094313;28;20056;-44
2022/03/12 01:10:41;;;;;;;19.60;9.23;;;;;;;15.69;32.54;101175.16;5081263;28;19912;-44
2022/03/12 01:13:06;;;;;;;20.75;10.95;;;;;;;15.69;32.40;101187.81;5089589;28;20419;-46
2022/03/12 01:15:33;;;;;;;23.27;10.90;;;;;;;15.64;32.45;101188.47;5088133;28;20053;-45
2022/03/12 01:17:59;;;;;;;24.02;10.82;;;;;;;15.61;32.34;101187.03;5082348;28;20052;-44
2022/03/12 01:20:24;;;;;;;20.38;10.80;;;;;;;15.73;32.33;101191.72;5093522;28;20188;-44
2022/03/12 01:22:50;;;;;;;20.00;10.27;;;;;;;15.65;32.28;101182.03;5082290;28;20040;-45
2022/03/12 01:25:16;;;;;;;20.27;9.53;;;;;;;15.82;32.38;101190.38;5088078;28;20040;-49
2022/03/12 01:27:41;;;;;;;21.00;11.13;;;;;;;15.83;32.45;101196.63;5089412;28;20665;-45
2022/03/12 01:30:08;;;;;;;20.90;10.90;;;;;;;15.67;32.51;101200.66;5080963;28;20067;-46
2022/03/12 01:32:34;;;;;;;21.17;10.75;;;;;;;15.79;32.42;101201.63;5092469;28;20036;-45
2022/03/12 01:35:02;;;;;;;21.98;11.13;;;;;;;15.80;32.59;101197.88;5083607;28;20039;-47
2022/03/12 01:37:30;;;;;;;25.20;10.30;;;;;;;15.75;33.22;101189.63;5086390;28;20028;-51
2022/03/12 01:39:55;;;;;;;20.95;10.77;;;;;;;15.83;34.51;101192.03;5090953;28;20041;-47
2022/03/12 01:42:22;;;;;;;22.87;11.37;;;;;;;15.72;34.44;101190.88;5080113;28;20037;-45
2022/03/12 01:44:50;;;;;;;27.17;10.85;;;;;;;15.03;36.35;101191.63;5091850;28;20282;-47
2022/03/12 01:47:19;;;;;;;25.55;11.45;;;;;;;14.88;38.16;101191.06;5085049;28;20040;-48
2022/03/12 01:49:47;;;;;;;28.67;12.20;;;;;;;14.72;38.79;101192.41;5084182;28;20041;-46
2022/03/12 01:52:13;;;;;;;20.75;10.52;;;;;;;15.03;38.03;101186.22;5093159;28;20032;-46
2022/03/12 01:54:42;;;;;;;23.73;11.02;;;;;;;15.19;38.41;101192.13;5063517;28;20028;-46
2022/03/12 01:57:11;;;;;;;26.35;12.18;;;;;;;15.30;37.94;101188.75;5088598;28;20028;-48
2022/03/12 01:59:37;;;;;;;23.67;11.45;;;;;;;15.34;38.32;101200.72;5084758;28;20040;-46
2022/03/12 02:02:12;;;;;;;21.60;10.40;;;;;;;15.40;38.58;101203.59;5091313;28;20051;-44
2022/03/12 02:04:37;;;;;;;24.63;11.00;;;;;;;15.26;39.14;101209.09;5076373;28;20060;-44
2022/03/12 02:07:03;;;;;;;26.37;11.23;;;;;;;15.41;39.24;101210.63;5084197;28;20039;-45
2022/03/12 02:09:28;;;;;;;22.10;12.23;;;;;;;15.42;40.94;101226.59;5085762;28;20056;-47
2022/03/12 02:11:54;;;;;;;30.63;13.60;;;;;;;15.33;42.73;101219.78;5090100;28;20531;-44
2022/03/12 02:14:27;;;;;;;27.53;12.27;;;;;;;15.11;42.70;101216.63;5079222;28;20033;-47
2022/03/12 02:16:58;;;;;;;27.63;13.75;;;;;;;15.08;44.52;101211.69;5090674;28;20044;-46
2022/03/12 02:19:26;;;;;;;29.25;12.63;;;;;;;15.10;43.66;101212.28;5085566;28;20037;-49
2022/03/12 02:22:09;;;;;;;26.63;13.70;;;;;;;15.22;43.30;101207.84;5082380;28;20063;-49
2022/03/12 02:24:36;;;;;;;23.95;11.90;;;;;;;15.07;43.80;101210.03;5092506;28;20037;-50
2022/03/12 02:27:05;;;;;;;26.30;12.10;;;;;;;15.33;43.51;101204.47;5082433;28;20091;-48
2022/03/12 02:29:31;;;;;;;25.77;12.50;;;;;;;15.44;43.83;101210.19;5085380;28;20075;-44
2022/03/12 02:31:59;;;;;;;26.80;11.70;;;;;;;15.34;44.15;101200.72;5089965;28;20028;-48
2022/03/12 02:34:34;;;;;;;23.10;11.82;;;;;;;15.32;44.25;101200.13;5078949;28;20071;-47
2022/03/12 02:36:59;;;;;;;25.05;12.70;;;;;;;15.14;45.45;101210.81;5089612;28;20037;-47
2022/03/12 02:39:27;;;;;;;22.30;10.77;;;;;;;15.03;44.98;101205.09;5085463;28;20074;-45
2022/03/12 02:41:56;;;;;;;30.17;12.75;;;;;;;15.14;45.62;101213.50;5081682;28;20037;-47
2022/03/12 02:44:24;;;;;;;22.70;11.57;;;;;;;15.29;45.43;101210.50;5091335;28;20040;-49
2022/03/12 02:47:14;;;;;;;24.88;12.80;;;;;;;15.23;45.71;101204.13;5079874;28;20043;-45
2022/03/12 02:49:50;;;;;;;24.35;12.25;;;;;;;15.21;45.00;101203.50;5083604;28;20037;-46
2022/03/12 02:52:17;;;;;;;23.90;11.73;;;;;;;15.13;44.57;101204.63;5084260;28;20033;-47
2022/03/12 02:54:44;;;;;;;23.90;11.82;;;;;;;15.44;44.51;101210.19;5078911;28;20040;-46
2022/03/12 02:57:10;;;;;;;24.45;12.95;;;;;;;15.07;43.93;101200.06;5087755;28;20057;-46
2022/03/12 02:59:36;;;;;;;21.02;11.15;;;;;;;15.36;43.52;101219.38;5086172;28;20063;-45
2022/03/12 03:02:03;;;;;;;24.13;11.83;;;;;;;15.20;43.55;101220.72;5080331;28;20063;-47
2022/03/12 03:04:35;;;;;;;22.20;11.43;;;;;;;15.12;43.16;101218.28;5091700;28;20032;-46
2022/03/12 03:07:03;;;;;;;26.42;12.23;;;;;;;14.96;43.44;101223.13;5081468;28;20040;-48
2022/03/12 03:09:29;;;;;;;23.75;12.38;;;;;;;15.12;42.95;101218.28;5084875;28;20063;-50
2022/03/12 03:11:56;;;;;;;26.65;11.57;;;;;;;15.18;42.78;101220.94;5088799;28;20044;-46
2022/03/12 03:14:29;;;;;;;23.05;11.45;;;;;;;14.95;43.14;101210.69;5078294;28;20033;-47
2022/03/12 03:16:56;;;;;;;22.30;11.88;;;;;;;15.22;42.58;101229.41;5089785;28;20104;-50
2022/03/12 03:19:26;;;;;;;23.75;11.15;;;;;;;15.25;42.49;101234.38;5083132;28;20055;-49
2022/03/12 03:21:58;;;;;;;23.33;11.05;;;;;;;15.20;42.41;101220.72;5081746;28;20075;-48
2022/03/12 03:24:25;;;;;;;23.25;11.48;;;;;;;15.42;41.96;101214.97;5091403;28;20047;-43
2022/03/12 03:26:56;;;;;;;22.00;11.10;;;;;;;15.24;42.23;101227.34;5079475;28;20037;-45
2022/03/12 03:29:25;;;;;;;22.55;10.70;;;;;;;15.20;42.34;101223.41;5085701;28;20059;-44
2022/03/12 03:31:51;;;;;;;20.95;10.23;;;;;;;15.22;42.43;101240.19;5087628;28;20404;-45
2022/03/12 03:34:18;;;;;;;21.17;10.38;;;;;;;15.17;42.09;101238.16;5078179;28;20041;-47
2022/03/12 03:36:43;;;;;;;21.85;10.18;;;;;;;15.19;42.03;101238.75;5090317;28;20135;-49
2022/03/12 03:39:09;;;;;;;20.90;11.93;;;;;;;15.18;42.31;101245.19;5081575;28;20036;-46
2022/03/12 03:41:34;;;;;;;19.13;10.80;;;;;;;15.33;42.32;101241.34;5083942;28;20024;-45
2022/03/12 03:44:00;;;;;;;24.23;11.17;;;;;;;15.30;42.25;101250.72;5088928;28;20096;-46
2022/03/12 03:46:27;;;;;;;23.75;11.10;;;;;;;14.79;43.08;101257.81;5077524;28;20048;-44
2022/03/12 03:48:54;;;;;;;22.73;11.60;;;;;;;14.76;43.41;101242.91;5089729;28;20090;-44
2022/03/12 03:51:20;;;;;;;24.65;11.63;;;;;;;14.85;43.72;101246.16;5082747;28;20052;-44
2022/03/12 03:53:47;;;;;;;21.95;11.38;;;;;;;14.93;43.39;101239.72;5081673;28;20054;-47
2022/03/12 03:56:12;;;;;;;22.23;11.93;;;;;;;14.71;43.75;101247.28;5090086;28;20103;-44
2022/03/12 03:58:38;;;;;;;24.33;11.80;;;;;;;14.87;43.76;101252.16;5077583;28;20067;-45
2022/03/12 04:01:17;;;;;;;23.63;11.30;;;;;;;14.72;44.22;101252.44;5087346;28;20476;-49
2022/03/12 04:03:51;;;;;;;24.63;11.35;;;;;;;14.77;44.08;101255.34;5086005;28;20024;-49
2022/03/12 04:06:18;;;;;;;25.50;11.27;;;;;;;14.72;44.22;101265.91;5077951;28;20041;-50
2022/03/12 04:08:46;;;;;;;25.27;12.15;;;;;;;14.64;44.83;101260.72;5061836;28;20032;-49
2022/03/12 04:11:17;;;;;;;21.75;10.85;;;;;;;14.66;45.00;101269.41;5086829;28;20042;-46
2022/03/12 04:13:43;;;;;;;26.00;12.02;;;;;;;14.65;45.10;101272.31;5085860;28;20036;-48
2022/03/12 04:16:10;;;;;;;24.40;12.05;;;;;;;14.41;45.66;101269.25;5078679;28;20033;-46
2022/03/12 04:18:37;;;;;;;24.33;12.35;;;;;;;14.86;45.19;101269.38;5093245;28;20029;-49
2022/03/12 04:21:04;;;;;;;20.45;11.15;;;;;;;14.68;46.09;101272.72;5087705;28;20056;-49
2022/03/12 04:23:29;;;;;;;19.67;10.10;;;;;;;14.41;46.95;101274.66;5083715;28;20040;-51
2022/03/12 04:25:58;;;;;;;23.60;11.60;;;;;;;14.48;47.09;101284.38;5080975;28;20045;-50
2022/03/12 04:28:28;;;;;;;22.48;12.57;;;;;;;14.28;48.21;101280.88;5090859;28;20043;-47
2022/03/12 04:30:54;;;;;;;23.52;11.80;;;;;;;14.32;48.71;101290.22;5079022;28;20099;-46
2022/03/12 04:33:20;;;;;;;21.90;12.20;;;;;;;14.41;48.94;101280.03;5085594;28;20067;-46
2022/03/12 04:35:48;;;;;;;21.98;10.48;;;;;;;14.43;48.92;101276.09;5086055;28;20104;-47
2022/03/12 04:38:14;;;;;;;21.83;11.07;;;;;;;14.31;49.68;101273.22;5077279;28;20131;-47
2022/03/12 04:40:40;;;;;;;;;;;;;;;14.65;49.51;101275.84;5091009;28;20052;-48
2022/03/12 04:43:09;;;;;;;22.02;11.38;;;;;;;14.47;49.97;101284.59;5087303;28;19913;-46
2022/03/12 04:45:35;;;;;;;22.50;11.48;;;;;;;14.48;50.27;101284.38;5084440;28;20038;-47
2022/03/12 04:48:02;;;;;;;22.08;10.63;;;;;;;14.53;50.64;101288.28;5079675;28;20041;-45
2022/03/12 04:50:28;;;;;;;19.83;10.57;;;;;;;14.52;51.33;101281.25;5074899;28;20041;-49
2022/03/12 04:52:57;;;;;;;23.42;10.90;;;;;;;14.33;52.41;101289.19;5089275;28;20048;-48
2022/03/12 04:55:26;;;;;;;21.02;11.45;;;;;;;14.38;53.84;101300.13;5082596;28;20052;-44
2022/03/12 04:57:52;;;;;;;24.33;10.82;;;;;;;14.80;53.03;101299.03;5081198;28;20037;-45
2022/03/12 05:00:27;;;;;;;22.90;10.73;;;;;;;14.48;54.62;101299.69;5090380;28;20032;-46
2022/03/12 05:03:01;;;;;;;19.45;10.60;;;;;;;14.43;56.04;101292.25;5062905;28;20047;-45
2022/03/12 05:05:27;;;;;;;20.80;11.07;;;;;;;14.53;56.40;101291.81;5084983;28;20040;-48
2022/03/12 05:07:57;;;;;;;26.20;11.48;;;;;;;14.33;58.38;101297.25;5090441;28;20033;-46
2022/03/12 05:10:27;;;;;;;21.15;10.55;;;;;;;14.64;57.41;101298.41;5080846;28;20033;-46
2022/03/12 05:13:00;;;;;;;23.08;10.73;;;;;;;14.39;57.48;101298.25;5092907;28;20097;-48
2022/03/12 05:15:34;;;;;;;19.23;10.13;;;;;;;14.47;57.20;101298.84;5086082;28;20088;-51
2022/03/12 05:18:07;;;;;;;20.77;11.52;;;;;;;14.28;58.67;101308.63;5083537;28;20040;-47
2022/03/12 05:20:37;;;;;;;23.80;10.25;;;;;;;14.39;58.65;101312.53;5093487;28;20051;-48
2022/03/12 05:23:07;;;;;;;21.60;10.77;;;;;;;14.25;61.22;101310.91;5082233;28;20032;-48
2022/03/12 05:25:40;;;;;;;21.58;10.25;;;;;;;14.14;63.94;101305.13;5087275;28;20036;-44
2022/03/12 05:28:06;;;;;;;22.40;11.00;;;;;;;14.05;67.80;101317.09;5091800;28;20037;-48
2022/03/12 05:30:32;;;;;;;20.98;9.27;;;;;;;14.20;68.43;101320.41;5080280;28;20052;-46
2022/03/12 05:32:59;;;;;;;29.98;12.82;;;;;;;14.35;69.28;101327.47;5091981;28;20037;-46
2022/03/12 05:35:25;;;;;;;20.15;10.63;;;;;;;14.43;69.45;101326.41;5077020;28;20096;-46
2022/03/12 05:37:52;;;;;;;23.90;10.00;;;;;;;14.36;71.18;101337.19;5089371;28;20044;-50
2022/03/12 05:40:20;;;;;;;17.65;9.85;;;;;;;14.41;72.11;101333.84;5080997;28;20041;-45
2022/03/12 05:42:49;;;;;;;20.35;9.45;;;;;;;14.18;75.47;101341.31;5093260;28;20044;-45
2022/03/12 05:45:18;;;;;;;18.73;9.23;;;;;;;14.00;77.77;101341.09;5083828;28;20037;-44
2022/03/12 05:47:46;;;;;;;23.83;10.50;;;;;;;14.03;78.23;101338.84;5085231;28;20413;-45
2022/03/12 05:50:13;;;;;;;20.25;9.77;;;;;;;13.96;79.83;101345.25;5092032;28;20028;-45
2022/03/12 05:52:49;;;;;;;;;;;;;;;14.07;78.65;101338.44;5078192;28;20037;-46
2022/03/12 05:55:18;;;;;;;19.85;9.77;;;;;;;14.14;79.27;101341.94;5083941;28;19946;-45
2022/03/12 05:57:44;;;;;;;18.90;9.43;;;;;;;14.26;80.09;101347.53;5085337;28;20090;-45
2022/03/12 06:00:13;;;;;;;21.33;10.02;;;;;;;14.16;81.52;101345.25;5091511;28;20039;-46
2022/03/12 06:02:48;;;;;;;17.92;9.38;;;;;;;14.30;80.31;101346.06;5079917;28;20071;-45
2022/03/12 06:05:21;;;;;;;21.52;11.40;;;;;;;13.86;86.31;101349.19;5089092;28;20032;-43
2022/03/12 06:07:47;;;;;;;19.20;10.02;;;;;;;14.14;85.35;101339.25;5088038;28;20131;-47
2022/03/12 06:10:14;;;;;;;17.33;8.73;;;;;;;13.96;88.99;101340.72;5081088;28;20090;-48
2022/03/12 06:12:43;;;;;;;18.02;9.13;;;;;;;14.12;86.19;101338.63;5092824;28;20055;-45
2022/03/12 06:15:11;;;;;;;23.08;10.88;;;;;;;14.08;87.58;101348.16;5082544;28;20029;-49
2022/03/12 06:17:38;;;;;;;20.10;10.55;;;;;;;14.15;86.84;101349.81;5084970;28;20120;-47
2022/03/12 06:20:05;;;;;;;19.77;9.68;;;;;;;14.18;87.21;101352.09;5089810;28;20087;-48
2022/03/12 06:22:30;;;;;;;24.08;11.18;;;;;;;14.10;87.41;101360.38;5079357;28;20045;-49
2022/03/12 06:24:56;;;;;;;19.73;9.97;;;;;;;14.16;87.48;101353.31;5091362;28;20028;-46
2022/03/12 06:27:22;;;;;;;19.37;9.67;;;;;;;14.00;90.05;101362.63;5084100;28;20115;-51
2022/03/12 06:29:48;;;;;;;16.92;9.45;;;;;;;14.08;90.44;101359.75;5084362;28;20033;-49
2022/03/12 06:32:15;;;;;;;19.67;10.05;;;;;;;14.02;91.65;101356.00;5090228;28;20032;-50
2022/03/12 06:34:41;;;;;;;19.73;9.75;;;;;;;14.33;86.55;101368.00;5078986;28;20028;-47
2022/03/12 06:37:08;;;;;;;18.48;9.68;;;;;;;14.27;87.27;101362.63;5088735;28;20033;-52
2022/03/12 06:39:34;;;;;;;21.23;9.52;;;;;;;14.10;89.70;101365.75;5085503;28;20096;-48
2022/03/12 06:42:02;;;;;;;23.55;9.93;;;;;;;14.18;89.34;101365.53;5082155;28;20035;-47
2022/03/12 06:44:32;;;;;;;;;;;;;;;14.28;88.67;101369.66;5092577;28;20040;-47
2022/03/12 06:47:02;;;;;;;21.40;9.82;;;;;;;14.20;89.40;101386.84;5075601;28;19943;-47
2022/03/12 06:49:29;;;;;;;18.50;9.48;;;;;;;14.24;90.20;101381.88;5084273;28;20044;-47
2022/03/12 06:51:55;;;;;;;17.92;9.82;;;;;;;14.20;92.11;101389.53;5083077;28;20066;-48
2022/03/12 06:54:22;;;;;;;28.13;9.75;;;;;;;14.26;91.84;101386.03;5091758;28;20044;-47
2022/03/12 06:56:48;;;;;;;;;;;;;;;14.45;90.75;101392.44;5078983;28;20024;-45
2022/03/12 06:59:14;;;;;;;16.40;9.10;;;;;;;14.52;89.90;101386.22;5087497;28;19972;-46
2022/03/12 07:01:40;;;;;;;15.97;8.93;;;;;;;14.46;91.11;101390.56;5085397;28;20036;-46
2022/03/12 07:04:08;;;;;;;21.98;9.23;;;;;;;14.56;91.05;101403.63;5080774;28;20033;-44
2022/03/12 07:06:34;;;;;;;20.40;9.85;;;;;;;14.72;92.03;101403.19;5091487;28;20033;-46
2022/03/12 07:09:00;;;;;;;17.75;9.00;;;;;;;14.87;89.45;101405.66;5078815;28;20061;-48
2022/03/12 07:11:26;;;;;;;18.23;9.02;;;;;;;14.48;96.65;101413.53;5086225;28;20048;-47
2022/03/12 07:13:51;;;;;;;17.25;8.52;;;;;;;14.73;96.07;101410.22;5084295;28;20059;-47
2022/03/12 07:16:17;;;;;;;17.63;8.63;;;;;;;14.70;96.70;101421.38;5076384;28;20040;-46
2022/03/12 07:18:43;;;;;;;18.73;8.77;;;;;;;14.53;100.00;101410.22;5091530;28;20033;-48
2022/03/12 07:21:08;;;;;;;19.65;9.02;;;;;;;14.59;100.00;101417.47;5080351;28;20304;-52
2022/03/12 07:23:34;;;;;;;15.77;7.72;;;;;;;14.65;100.00;101412.28;5083799;28;20044;-50
2022/03/12 07:26:00;;;;;;;15.82;8.88;;;;;;;15.02;96.13;101421.59;5087515;28;20032;-50
2022/03/12 07:28:27;;;;;;;18.95;8.77;;;;;;;14.62;100.00;101413.53;5094423;28;20025;-44
2022/03/12 07:30:53;;;;;;;17.90;9.80;;;;;;;14.64;100.00;101408.78;5077943;28;20033;-48
2022/03/12 07:33:20;;;;;;;15.43;9.45;;;;;;;14.83;100.00;101430.53;5087172;28;20128;-49
2022/03/12 07:35:45;;;;;;;15.40;8.53;;;;;;;14.76;100.00;101419.75;5084936;28;20040;-47
2022/03/12 07:38:12;;;;;;;17.05;8.90;;;;;;;15.00;100.00;101426.38;5080083;28;20029;-49
2022/03/12 07:40:38;;;;;;;19.73;8.23;;;;;;;15.25;97.34;101430.22;5090922;28;20040;-44
2022/03/12 07:43:04;;;;;;;15.60;8.98;;;;;;;15.34;96.83;101437.06;5080121;28;20024;-45
2022/03/12 07:45:33;;;;;;;15.88;8.45;;;;;;;15.14;99.05;101434.41;5084359;28;20037;-45
2022/03/12 07:47:59;;;;;;;17.63;7.90;;;;;;;15.39;98.74;101439.94;5087599;28;20051;-46
2022/03/12 07:50:26;;;;;;;14.23;8.13;;;;;;;15.42;98.31;101446.75;5078315;28;20033;-44
2022/03/12 07:52:52;;;;;;;15.70;8.73;;;;;;;15.27;99.84;101447.84;5061199;28;20265;-45
2022/03/12 07:55:18;;;;;;;;;;;;;;;15.45;100.00;101454.41;5087378;28;20102;-46
2022/03/12 07:57:44;;;;;;;13.80;8.48;;;;;;;15.49;98.93;101451.06;5084930;28;19912;-46
2022/03/12 08:00:13;;;;;;;13.93;8.20;;;;;;;15.38;99.52;101453.59;5079996;28;20043;-45
2022/03/12 08:02:45;;;;;;;16.40;8.25;;;;;;;15.49;100.00;101469.13;5090715;28;20028;-46
2022/03/12 08:05:12;;;;;;;16.27;8.48;;;;;;;15.61;99.86;101453.13;5079902;28;20031;-48
2022/03/12 08:07:39;;;;;;;16.75;7.97;;;;;;;15.72;97.62;101460.50;5084500;28;20041;-46
2022/03/12 08:10:06;;;;;;;16.33;7.45;;;;;;;15.82;97.40;101468.16;5087806;28;20055;-44
2022/03/12 08:12:35;;;;;;;16.17;7.80;;;;;;;16.01;96.80;101468.28;5077590;28;20037;-50
2022/03/12 08:15:07;;;;;;;15.65;7.97;;;;;;;15.74;100.00;101471.91;5088987;28;20089;-48
2022/03/12 08:17:32;;;;;;;11.73;6.70;;;;;;;15.85;98.48;101481.19;5072092;28;20036;-49
2022/03/12 08:19:58;;;;;;;17.98;8.77;;;;;;;16.10;96.15;101472.38;5081374;28;20068;-45
2022/03/12 08:22:25;;;;;;;12.27;7.10;;;;;;;16.16;96.89;101484.19;5089382;28;20056;-47
2022/03/12 08:24:51;;;;;;;15.38;8.43;;;;;;;15.98;98.06;101493.81;5077462;28;20095;-46
2022/03/12 08:27:17;;;;;;;13.37;7.70;;;;;;;16.26;96.42;101486.41;5087065;28;20097;-45
2022/03/12 08:29:44;;;;;;;14.30;7.40;;;;;;;16.11;97.06;101481.31;5084400;28;20036;-47
2022/03/12 08:32:11;;;;;;;13.82;6.95;;;;;;;16.21;98.33;101484.34;5079894;28;20041;-46
2022/03/12 08:34:36;;;;;;;12.77;7.13;;;;;;;16.37;97.59;101490.28;5090419;28;20029;-48
2022/03/12 08:37:05;;;;;;;13.10;7.28;;;;;;;16.71;92.56;101490.84;5078653;28;20063;-44
2022/03/12 08:39:31;;;;;;;15.70;7.50;;;;;;;16.44;94.99;101508.09;5085399;28;20033;-50
2022/03/12 08:41:57;;;;;;;14.32;7.35;;;;;;;16.88;91.57;101500.03;5089219;28;20051;-45
2022/03/12 08:44:23;;;;;;;13.82;7.20;;;;;;;17.12;87.34;101504.84;5082180;28;20040;-48
2022/03/12 08:46:49;;;;;;;14.18;7.07;;;;;;;16.84;90.04;101506.94;5093957;28;20051;-45
2022/03/12 08:49:18;;;;;;;17.95;6.65;;;;;;;17.31;85.04;101503.00;5084343;28;20029;-47
2022/03/12 08:51:45;;;;;;;16.00;6.87;;;;;;;17.19;84.95;101498.34;5087363;28;20037;-45
2022/03/12 08:54:11;;;;;;;11.07;6.07;;;;;;;17.26;83.60;101503.66;5078720;28;20278;-49
2022/03/12 08:56:37;;;;;;;14.85;6.32;;;;;;;17.81;78.01;101515.53;5085009;28;20266;-46
2022/03/12 08:59:04;;;;;;;12.67;6.63;;;;;;;18.11;75.20;101517.44;5076387;28;20067;-51
2022/03/12 09:01:32;;;;;;;9.53;5.80;;;;;;;17.75;76.44;101513.72;5076542;28;20266;-48
2022/03/12 09:03:59;;;;;;;10.13;5.20;;;;;;;18.27;70.02;101525.97;5074281;28;20312;-47
2022/03/12 09:06:27;;;;;;;;;;;;;;;18.82;66.13;101513.25;5077248;28;20262;-49
2022/03/12 09:08:53;;;;;;;9.63;4.80;;;;;;;18.33;67.52;101520.44;5076474;28;19920;-48
2022/03/12 09:11:20;;;;;;;8.17;4.50;;;;;;;18.51;65.63;101529.56;5075501;28;20036;-46
2022/03/12 09:13:46;;;;;;;7.70;5.00;;;;;;;18.48;65.32;101516.50;5076299;28;20282;-48
2022/03/12 09:16:14;;;;;;;12.73;5.47;;;;;;;19.94;58.69;101518.66;5076401;28;20048;-50
2022/03/12 09:18:41;;;;;;;10.03;4.60;;;;;;;19.50;57.42;101521.84;5074163;28;20503;-47
2022/03/12 09:21:07;;;;;;;10.80;5.40;;;;;;;19.35;59.22;101515.03;5075834;28;20270;-49
2022/03/12 09:23:34;;;;;;;10.48;5.25;;;;;;;18.94;59.60;101530.34;5076297;28;20281;-47
2022/03/12 09:25:59;;;;;;;10.98;5.95;;;;;;;18.72;62.99;101530.91;5076449;28;20041;-46
2022/03/12 09:28:25;;;;;;;15.77;6.10;;;;;;;18.96;61.76;101528.22;5078750;28;20159;-49
2022/03/12 09:30:51;;;;;;;10.40;5.85;;;;;;;18.77;62.57;101530.19;5080023;28;20048;-50
2022/03/12 09:33:17;;;;;;;13.27;6.30;;;;;;;18.89;62.34;101536.47;5078408;28;20040;-47
2022/03/12 09:35:44;;;;;;;12.57;4.93;;;;;;;19.09;61.09;101526.38;5078492;28;20068;-49
2022/03/12 09:38:10;;;;;;;12.23;6.10;;;;;;;18.76;63.26;101532.09;5076323;28;20036;-50
2022/03/12 09:40:36;;;;;;;12.18;5.97;;;;;;;18.77;64.06;101530.19;5078710;28;20345;-48
2022/03/12 09:43:02;;;;;;;11.32;5.50;;;;;;;19.19;61.07;101532.03;5079602;28;20048;-48
2022/03/12 09:45:28;;;;;;;11.18;5.78;;;;;;;19.80;57.83;101530.88;5078212;28;20108;-49
2022/03/12 09:47:54;;;;;;;15.05;7.03;;;;;;;19.97;55.55;101533.66;5078182;28;20048;-48
2022/03/12 09:50:21;;;;;;;9.77;5.90;;;;;;;20.41;53.49;101533.09;5091545;28;20032;-48
2022/03/12 09:52:47;;;;;;;13.30;6.35;;;;;;;20.17;54.49;101546.78;5077169;28;20037;-47
2022/03/12 09:55:13;;;;;;;13.13;6.50;;;;;;;20.17;53.47;101544.06;5090291;28;20040;-46
2022/03/12 09:57:39;;;;;;;;;;;;;;;20.41;52.34;101536.66;5085727;28;20059;-47
2022/03/12 10:00:06;;;;;;;11.50;4.73;;;;;;;20.71;50.63;101546.38;5083252;28;19912;-48
2022/03/12 10:02:37;;;;;;;11.47;5.13;;;;;;;20.99;49.59;101546.56;5082632;28;20096;-45
2022/03/12 10:05:03;;;;;;;8.75;4.55;;;;;;;19.94;51.67;101545.00;5080461;28;20281;-46
2022/03/12 10:07:29;;;;;;;12.25;5.18;;;;;;;19.70;54.35;101547.75;5087607;28;20098;-47
2022/03/12 10:09:55;;;;;;;12.13;5.03;;;;;;;19.14;57.16;101545.44;5087675;28;20036;-47
2022/03/12 10:12:20;;;;;;;7.93;4.90;;;;;;;19.31;56.68;101546.41;5081296;28;20086;-46
2022/03/12 10:14:49;;;;;;;9.40;4.80;;;;;;;20.20;52.24;101559.91;5092183;28;20040;-46
2022/03/12 10:17:17;;;;;;;12.77;5.73;;;;;;;19.95;52.85;101541.22;5081614;28;20273;-48
2022/03/12 10:19:44;;;;;;;9.70;4.03;;;;;;;19.39;50.44;101560.69;5084876;28;20278;-50
2022/03/12 10:22:10;;;;;;;11.70;5.33;;;;;;;19.41;50.93;101551.22;5072846;28;20261;-47
2022/03/12 10:24:36;;;;;;;18.88;6.90;;;;;;;19.75;50.06;101547.84;5075786;28;20282;-48
2022/03/12 10:27:03;;;;;;;9.52;3.33;;;;;;;19.45;49.08;101562.44;5092005;28;20041;-45
2022/03/12 10:29:28;;;;;;;10.63;3.17;;;;;;;19.98;48.15;101559.75;5076745;28;20104;-50
2022/03/12 10:31:55;;;;;;;8.33;3.87;;;;;;;20.14;47.21;101561.69;5075823;28;20277;-47
2022/03/12 10:34:25;;;;;;;20.40;5.90;;;;;;;20.70;46.06;101561.03;5075938;28;20350;-49
2022/03/12 10:36:55;;;;;;;30.77;10.73;;;;;;;20.12;47.25;101566.53;5092304;28;20032;-49
2022/03/12 10:39:35;;;;;;;10.43;5.07;;;;;;;20.43;46.27;101561.66;5082320;28;20307;-51
2022/03/12 10:42:09;;;;;;;10.50;5.07;;;;;;;20.36;45.91;101569.16;5083624;28;20270;-50
2022/03/12 10:44:36;;;;;;;9.77;2.97;;;;;;;20.84;45.26;101558.03;5075117;28;20262;-45
2022/03/12 10:47:03;;;;;;;6.43;3.10;;;;;;;20.72;45.03;101575.19;5091679;28;20312;-48
2022/03/12 10:49:30;;;;;;;8.73;2.87;;;;;;;21.16;43.73;101569.16;5082913;28;20280;-47
2022/03/12 10:52:00;;;;;;;12.33;4.23;;;;;;;22.53;41.53;101562.38;5083539;28;20270;-50
2022/03/12 10:54:26;;;;;;;9.03;2.73;;;;;;;22.28;41.05;101580.91;5090536;28;20281;-49
2022/03/12 10:56:54;;;;;;;9.65;3.00;;;;;;;22.68;40.04;101576.13;5078571;28;20345;-47
2022/03/12 10:59:29;;;;;;;11.10;2.40;;;;;;;22.63;39.28;101568.72;5083824;28;20032;-51
2022/03/12 11:01:57;;;;;;;9.87;2.73;;;;;;;22.70;38.64;101568.53;5084272;28;20293;-47
2022/03/12 11:04:27;;;;;;;8.60;3.13;;;;;;;22.64;39.11;101572.28;5089170;28;20332;-46
2022/03/12 11:06:55;;;;;;;8.57;2.53;;;;;;;23.03;37.32;101569.31;5075617;28;20045;-45
2022/03/12 11:09:33;;;;;;;7.83;2.90;;;;;;;23.06;37.39;101576.16;5081508;28;20040;-47
2022/03/12 11:12:00;;;;;;;10.47;3.80;;;;;;;22.88;37.02;101580.91;5083496;28;20033;-49
2022/03/12 11:14:31;;;;;;;8.00;3.47;;;;;;;22.87;38.08;101576.56;5090106;28;20055;-50
2022/03/12 11:16:58;;;;;;;8.03;3.07;;;;;;;22.85;37.96;101578.72;5078316;28;20033;-48
2022/03/12 11:19:41;;;;;;;10.67;3.67;;;;;;;22.40;39.00;101583.50;5088041;28;20036;-49